KBZN/BZN METAR and TAF weather

Enter ICAO airport designator
Station Type Date Time Source
KBZN METAR 2018/04/19 12:56 UTC NOAA

KBZN 191256Z 07004KT 10SM CLR M01/M04 A3010 RMK AO2 SLP200 T10061044


Station Type Date Time Source
KBZN Decoded METAR 2018/04/19 12:56 UTC NOAA

BOZEMAN GALLATIN FIELD, MT, United States (KBZN) 45-47N 111-09W 1361M
Apr 19, 2018 - 08:56 AM EDT / 2018.04.19 1256 UTC
Wind: from the ENE (070 degrees) at 5 MPH (4 KT):0
Visibility: 10 mile(s):0
Sky conditions: clear
Temperature: 30.9 F (-0.6 C)
Windchill: 26 F (-3 C):1
Dew Point: 24.1 F (-4.4 C)
Relative Humidity: 75%
Pressure (altimeter): 30.1 in. Hg (1019 hPa)
ob: KBZN 191256Z 07004KT 10SM CLR M01/M04 A3010 RMK AO2 SLP200 T10061044
cycle: 13

Station Type Date Time Source
KBZN TAF 2018/04/19 12:30 UTC NOAA

TAF KBZN 191128Z 1912/2018 VRB05KT P6SM FEW060 SCT150
FM192000 09010KT P6SM FEW060 SCT120
FM200900 VRB05KT P6SM FEW030 FEW180


Example: see airport list